createdAt,value
2023-01-17T00:00:03.701Z,6.34
2023-01-17T00:02:36.231Z,6.41
2023-01-17T00:05:19.832Z,6.23
2023-01-17T00:08:02.687Z,6.19
2023-01-17T00:10:33.037Z,6.23
2023-01-17T00:13:06.119Z,6.21
2023-01-17T00:15:40.216Z,6.21
2023-01-17T00:18:10.608Z,6.09
2023-01-17T00:20:53.313Z,6.06
2023-01-17T00:23:38.513Z,6.03
2023-01-17T00:26:13.855Z,5.97
2023-01-17T00:28:42.977Z,5.99
2023-01-17T00:31:15.728Z,6.00
2023-01-17T00:33:43.399Z,5.99
2023-01-17T00:36:11.630Z,5.98
2023-01-17T00:38:40.377Z,5.91
2023-01-17T00:41:10.345Z,5.88
2023-01-17T00:43:53.665Z,5.90
2023-01-17T00:46:39.647Z,5.80
2023-01-17T00:49:22.836Z,5.74
2023-01-17T00:52:06.374Z,5.83
2023-01-17T00:54:49.095Z,5.75
2023-01-17T00:57:31.812Z,5.68
2023-01-17T01:00:14.534Z,5.62
2023-01-17T01:03:00.205Z,5.59
2023-01-17T01:05:45.083Z,5.55
2023-01-17T01:08:39.579Z,5.60
2023-01-17T01:11:24.713Z,5.64
2023-01-17T01:14:07.557Z,5.62
2023-01-17T01:16:50.479Z,5.65
2023-01-17T01:19:35.863Z,5.63
2023-01-17T01:22:18.773Z,5.63
2023-01-17T01:25:01.471Z,5.65
2023-01-17T01:27:44.124Z,5.53
2023-01-17T01:30:27.650Z,5.47
2023-01-17T01:33:10.309Z,5.49
2023-01-17T01:35:44.664Z,5.51
2023-01-17T01:38:14.984Z,5.56
2023-01-17T01:40:48.223Z,5.58
2023-01-17T01:43:22.667Z,5.56
2023-01-17T01:45:58.574Z,5.68
2023-01-17T01:48:39.641Z,5.74
2023-01-17T01:51:17.756Z,5.68
2023-01-17T01:53:56.066Z,5.65
2023-01-17T01:56:27.054Z,5.65
2023-01-17T01:58:58.269Z,5.62
2023-01-17T02:01:29.684Z,5.61
2023-01-17T02:04:00.415Z,5.65
2023-01-17T02:06:38.352Z,5.72
2023-01-17T02:09:12.695Z,5.72
2023-01-17T02:11:44.247Z,5.66
2023-01-17T02:14:19.065Z,5.63
2023-01-17T02:17:14.569Z,5.60
2023-01-17T02:20:24.664Z,5.60
2023-01-17T02:23:51.486Z,5.52
2023-01-17T02:26:57.289Z,5.56
2023-01-17T02:30:17.419Z,5.45
2023-01-17T02:33:01.629Z,5.52
2023-01-17T02:35:40.837Z,5.42
2023-01-17T02:38:26.475Z,5.39
2023-01-17T02:41:03.119Z,5.45
2023-01-17T02:43:34.581Z,5.43
2023-01-17T02:46:04.907Z,5.45
2023-01-17T02:48:40.253Z,5.40
2023-01-17T02:51:46.271Z,5.38
2023-01-17T02:54:40.175Z,5.28
2023-01-17T02:57:37.858Z,5.27
2023-01-17T03:00:22.452Z,5.34
2023-01-17T03:03:05.540Z,5.33
2023-01-17T03:05:44.765Z,5.28
2023-01-17T03:08:16.420Z,5.32
2023-01-17T03:10:47.754Z,5.34
2023-01-17T03:13:17.812Z,5.27
2023-01-17T03:15:48.762Z,5.20
2023-01-17T03:18:19.784Z,5.13
2023-01-17T03:20:52.815Z,5.11
2023-01-17T03:23:23.137Z,5.11
2023-01-17T03:25:53.529Z,5.08
2023-01-17T03:28:23.899Z,5.06
2023-01-17T03:30:54.299Z,5.03
2023-01-17T03:33:24.904Z,5.04
2023-01-17T03:35:58.264Z,5.02
2023-01-17T03:38:28.937Z,4.99
2023-01-17T03:40:59.426Z,4.98
2023-01-17T03:43:29.799Z,5.00
2023-01-17T03:46:05.983Z,5.00
2023-01-17T03:48:36.997Z,4.97
2023-01-17T03:51:09.961Z,4.90
2023-01-17T03:53:40.304Z,4.89
2023-01-17T03:56:11.263Z,4.87
2023-01-17T03:58:41.633Z,4.88
2023-01-17T04:01:12.700Z,4.90
2023-01-17T04:03:43.386Z,4.96
2023-01-17T04:06:16.395Z,4.91
2023-01-17T04:08:46.685Z,4.98
2023-01-17T04:11:17.011Z,4.93
2023-01-17T04:13:47.790Z,4.90
2023-01-17T04:16:21.055Z,4.87
2023-01-17T04:18:51.379Z,4.79
2023-01-17T04:21:24.393Z,4.78
2023-01-17T04:23:54.691Z,4.80
2023-01-17T04:26:25.011Z,4.92
2023-01-17T04:28:55.289Z,4.89
2023-01-17T04:31:25.602Z,4.91
2023-01-17T04:33:56.154Z,4.90
2023-01-17T04:36:29.109Z,4.94
2023-01-17T04:38:59.454Z,4.96
2023-01-17T04:41:29.860Z,5.01
2023-01-17T04:44:00.149Z,5.09
2023-01-17T04:46:30.564Z,5.04
2023-01-17T04:49:00.875Z,4.96
2023-01-17T04:51:33.874Z,4.98
2023-01-17T04:54:04.182Z,5.03
2023-01-17T04:56:34.470Z,5.00
2023-01-17T04:59:04.745Z,4.92
2023-01-17T05:01:35.265Z,4.80
2023-01-17T05:04:05.958Z,4.82
2023-01-17T05:06:38.991Z,4.84
2023-01-17T05:09:09.614Z,4.78
2023-01-17T05:11:40.112Z,4.82
2023-01-17T05:14:10.497Z,4.83
2023-01-17T05:16:40.814Z,4.80
2023-01-17T05:19:11.222Z,4.85
2023-01-17T05:21:44.217Z,4.85
2023-01-17T05:24:14.570Z,4.72
2023-01-17T05:26:45.077Z,4.75
2023-01-17T05:29:15.637Z,4.77
2023-01-17T05:31:46.008Z,4.82
2023-01-17T05:34:17.493Z,4.71
2023-01-17T05:36:50.479Z,4.74
2023-01-17T05:39:21.053Z,4.84
2023-01-17T05:41:51.454Z,4.81
2023-01-17T05:44:21.755Z,4.86
2023-01-17T05:46:52.961Z,4.82
2023-01-17T05:49:23.046Z,4.73
2023-01-17T05:51:56.000Z,4.71
2023-01-17T05:54:26.255Z,4.72
2023-01-17T05:56:56.587Z,4.74
2023-01-17T05:59:36.552Z,4.66
2023-01-17T06:02:07.712Z,4.65
2023-01-17T06:04:38.101Z,4.65
2023-01-17T06:07:11.129Z,4.57
2023-01-17T06:09:41.389Z,4.61
2023-01-17T06:12:11.924Z,4.48
2023-01-17T06:14:42.264Z,4.46
2023-01-17T06:17:12.638Z,4.46
2023-01-17T06:19:43.010Z,4.38
2023-01-17T06:22:15.942Z,4.34
2023-01-17T06:24:46.196Z,4.27
2023-01-17T06:27:16.475Z,4.21
2023-01-17T06:29:46.779Z,4.24
2023-01-17T06:32:17.094Z,4.22
2023-01-17T06:34:47.597Z,4.18
2023-01-17T06:37:20.588Z,4.10
2023-01-17T06:39:50.838Z,3.99
2023-01-17T06:42:21.179Z,3.89
2023-01-17T06:44:51.422Z,3.83
2023-01-17T06:47:21.790Z,3.90
2023-01-17T06:49:52.045Z,3.91
2023-01-17T06:52:24.957Z,3.84
2023-01-17T06:54:55.244Z,3.76
2023-01-17T06:57:25.660Z,3.75
2023-01-17T06:59:55.961Z,3.72
2023-01-17T07:02:26.361Z,3.76
2023-01-17T07:04:56.728Z,3.79
2023-01-17T07:07:29.653Z,3.78
2023-01-17T07:10:00.543Z,3.85
2023-01-17T07:12:30.870Z,3.88
2023-01-17T07:15:01.146Z,3.87
2023-01-17T07:17:31.452Z,3.81
2023-01-17T07:20:02.089Z,3.94
2023-01-17T07:22:37.130Z,3.91
2023-01-17T07:25:08.722Z,3.89
2023-01-17T07:27:38.988Z,3.85
2023-01-17T07:30:11.822Z,3.91
2023-01-17T07:32:42.574Z,3.95
2023-01-17T07:35:13.373Z,4.00
2023-01-17T07:37:51.154Z,4.01
2023-01-17T07:40:23.166Z,4.17
2023-01-17T07:42:53.519Z,4.13
2023-01-17T07:45:23.877Z,4.20
2023-01-17T07:47:54.116Z,4.31
2023-01-17T07:50:24.418Z,4.26
2023-01-17T07:52:57.289Z,4.17
2023-01-17T07:55:27.649Z,4.15
2023-01-17T07:57:58.081Z,4.25
2023-01-17T08:00:29.195Z,4.24
2023-01-17T08:03:00.161Z,4.27
2023-01-17T08:05:32.012Z,4.38
2023-01-17T08:08:04.974Z,4.43
2023-01-17T08:10:35.230Z,4.35
2023-01-17T08:13:05.556Z,4.32
2023-01-17T08:15:36.015Z,4.33
2023-01-17T08:18:06.608Z,4.31
2023-01-17T08:20:37.053Z,4.40
2023-01-17T08:23:09.970Z,4.32
2023-01-17T08:25:40.610Z,4.30
2023-01-17T08:28:11.067Z,4.29
2023-01-17T08:30:44.146Z,4.31
2023-01-17T08:33:14.470Z,4.31
2023-01-17T08:35:55.152Z,4.24
2023-01-17T08:38:28.183Z,4.26
2023-01-17T08:41:03.921Z,4.29
2023-01-17T08:43:34.241Z,4.34
2023-01-17T08:46:06.482Z,4.50
2023-01-17T08:48:37.036Z,4.44
2023-01-17T08:51:07.891Z,4.48
2023-01-17T08:53:42.013Z,4.64
2023-01-17T08:56:12.945Z,4.84
2023-01-17T08:58:43.657Z,5.13
2023-01-17T09:01:14.191Z,5.48
2023-01-17T09:03:45.723Z,5.71
2023-01-17T09:06:18.625Z,5.67
2023-01-17T09:08:51.526Z,5.72
2023-01-17T09:11:22.011Z,5.88
2023-01-17T09:13:52.406Z,6.33
2023-01-17T09:16:22.774Z,6.57
2023-01-17T09:18:57.292Z,6.72
2023-01-17T09:21:29.317Z,6.57
2023-01-17T09:24:02.277Z,6.14
2023-01-17T09:26:33.592Z,5.91
2023-01-17T09:29:04.158Z,5.85
2023-01-17T09:31:34.967Z,6.09
2023-01-17T09:34:05.527Z,6.58
2023-01-17T09:36:35.933Z,7.19
2023-01-17T09:39:09.418Z,7.86
2023-01-17T09:41:47.783Z,7.50
2023-01-17T09:44:29.119Z,7.42
2023-01-17T09:47:06.053Z,7.76
2023-01-17T09:49:44.270Z,7.70
2023-01-17T09:52:18.539Z,7.93
2023-01-17T09:54:52.710Z,8.08
2023-01-17T09:57:41.197Z,7.89
2023-01-17T10:00:34.242Z,7.49
2023-01-17T10:03:45.444Z,7.25
2023-01-17T10:06:42.096Z,6.79
2023-01-17T10:09:38.340Z,6.45
2023-01-17T10:12:24.507Z,6.69
2023-01-17T10:15:33.611Z,7.03
2023-01-17T10:18:30.360Z,7.54
2023-01-17T10:21:10.977Z,7.45
2023-01-17T10:24:19.443Z,7.87
2023-01-17T10:26:54.560Z,7.73
2023-01-17T10:29:31.505Z,7.79
2023-01-17T10:32:04.563Z,7.81
2023-01-17T10:34:42.726Z,8.06
2023-01-17T10:37:24.148Z,8.16
2023-01-17T10:39:59.277Z,7.90
2023-01-17T10:42:40.225Z,7.55
2023-01-17T10:45:25.742Z,7.29
2023-01-17T10:48:05.116Z,7.29
2023-01-17T10:50:46.848Z,7.17
2023-01-17T10:53:35.106Z,6.98
2023-01-17T10:56:06.457Z,6.72
2023-01-17T10:58:36.759Z,6.64
2023-01-17T11:01:20.481Z,6.36
2023-01-17T11:03:55.414Z,6.30
2023-01-17T11:06:27.720Z,6.08
2023-01-17T11:09:01.137Z,6.00
2023-01-17T11:11:34.373Z,5.88
2023-01-17T11:14:19.249Z,6.02
2023-01-17T11:17:03.183Z,6.75
2023-01-17T11:19:36.412Z,7.21
2023-01-17T11:22:10.243Z,7.46
2023-01-17T11:24:45.941Z,8.10
2023-01-17T11:27:28.993Z,8.79
2023-01-17T11:30:18.115Z,8.63
2023-01-17T11:33:00.109Z,7.83
2023-01-17T11:35:33.637Z,7.30
2023-01-17T11:38:13.402Z,6.81
2023-01-17T11:40:45.440Z,6.48
2023-01-17T11:43:25.968Z,6.18
2023-01-17T11:46:18.771Z,5.96
2023-01-17T11:48:56.488Z,5.83
2023-01-17T11:51:31.284Z,6.14
2023-01-17T11:54:18.497Z,6.07
2023-01-17T11:56:50.643Z,5.98
2023-01-17T11:59:30.155Z,5.81
2023-01-17T12:02:53.033Z,5.62
2023-01-17T12:05:43.675Z,5.72
2023-01-17T12:08:28.018Z,6.03
2023-01-17T12:11:08.372Z,6.23
2023-01-17T12:14:00.966Z,6.65
2023-01-17T12:16:49.341Z,7.25
2023-01-17T12:19:45.710Z,7.44
2023-01-17T12:22:35.876Z,6.94
2023-01-17T12:25:27.977Z,6.66
2023-01-17T12:28:22.687Z,6.35
2023-01-17T12:31:13.482Z,6.35
2023-01-17T12:33:53.171Z,6.56
2023-01-17T12:36:42.803Z,6.90
2023-01-17T12:39:15.804Z,7.45
2023-01-17T12:42:01.129Z,7.51
2023-01-17T12:44:51.976Z,7.17
2023-01-17T12:47:24.024Z,8.26
2023-01-17T12:50:07.246Z,12.00
2023-01-17T12:52:51.368Z,13.79
2023-01-17T12:55:37.808Z,14.44
2023-01-17T12:58:16.407Z,15.46
2023-01-17T13:00:53.160Z,16.11
2023-01-17T13:03:34.644Z,16.41
2023-01-17T13:06:06.634Z,18.09
2023-01-17T13:08:43.916Z,18.90
2023-01-17T13:11:23.404Z,18.40
2023-01-17T13:13:57.431Z,19.13
2023-01-17T13:16:35.273Z,18.65
2023-01-17T13:19:14.492Z,19.12
2023-01-17T13:21:45.075Z,18.88
2023-01-17T13:24:39.514Z,18.28
2023-01-17T13:28:05.212Z,17.66
2023-01-17T13:31:12.689Z,16.06
2023-01-17T13:34:01.854Z,14.98
2023-01-17T13:36:51.795Z,13.40
2023-01-17T13:39:51.572Z,12.03
2023-01-17T13:42:30.819Z,11.29
2023-01-17T13:45:11.253Z,10.64
2023-01-17T13:47:45.062Z,10.05
2023-01-17T13:50:53.100Z,9.30
2023-01-17T13:54:03.967Z,8.67
2023-01-17T13:56:38.311Z,8.49
2023-01-17T13:59:31.131Z,8.36
2023-01-17T14:02:04.457Z,8.05
2023-01-17T14:05:13.446Z,8.40
2023-01-17T14:07:50.565Z,8.62
2023-01-17T14:10:37.715Z,8.74
2023-01-17T14:13:28.593Z,8.20
2023-01-17T14:15:59.266Z,8.35
2023-01-17T14:18:40.371Z,8.81
2023-01-17T14:21:22.169Z,9.13
2023-01-17T14:24:04.028Z,9.23
2023-01-17T14:26:49.838Z,9.93
2023-01-17T14:29:53.031Z,10.11
2023-01-17T14:32:27.191Z,9.82
2023-01-17T14:35:00.817Z,9.04
2023-01-17T14:37:46.468Z,8.59
2023-01-17T14:40:26.123Z,8.55
2023-01-17T14:43:04.556Z,8.32
2023-01-17T14:45:37.622Z,7.88
2023-01-17T14:48:14.070Z,7.53
2023-01-17T14:50:51.422Z,7.32
2023-01-17T14:53:28.365Z,7.20
2023-01-17T14:56:02.788Z,6.83
2023-01-17T14:58:35.136Z,6.78
2023-01-17T15:01:08.501Z,6.85
2023-01-17T15:03:47.415Z,6.42
2023-01-17T15:06:24.915Z,6.26
2023-01-17T15:08:55.307Z,6.19
2023-01-17T15:11:30.230Z,5.97
2023-01-17T15:14:05.940Z,5.70
2023-01-17T15:16:41.122Z,5.61
2023-01-17T15:19:14.991Z,5.73
2023-01-17T15:21:51.346Z,5.62
2023-01-17T15:24:25.855Z,5.70
2023-01-17T15:26:56.303Z,5.68
2023-01-17T15:29:29.842Z,5.56
2023-01-17T15:32:02.153Z,5.61
2023-01-17T15:34:34.520Z,5.69
2023-01-17T15:37:11.821Z,5.70
2023-01-17T15:39:43.811Z,5.66
2023-01-17T15:42:26.172Z,5.66
2023-01-17T15:44:59.080Z,5.65
2023-01-17T15:47:35.565Z,5.56
2023-01-17T15:50:31.502Z,5.42
2023-01-17T15:53:10.317Z,5.32
2023-01-17T15:55:42.142Z,5.26
2023-01-17T15:58:27.967Z,5.21
2023-01-17T16:00:58.883Z,5.18
2023-01-17T16:03:32.246Z,5.13
2023-01-17T16:06:06.247Z,5.09
2023-01-17T16:08:40.918Z,5.03
2023-01-17T16:11:15.841Z,4.99
2023-01-17T16:13:47.448Z,4.91
2023-01-17T16:16:26.922Z,4.84
2023-01-17T16:19:03.906Z,4.74
2023-01-17T16:21:35.212Z,4.66
2023-01-17T16:24:11.498Z,4.58
2023-01-17T16:26:41.847Z,4.50
2023-01-17T16:29:12.269Z,4.44
2023-01-17T16:31:42.591Z,4.38
2023-01-17T16:34:14.955Z,4.35
2023-01-17T16:36:45.589Z,4.24
2023-01-17T16:39:19.257Z,4.05
2023-01-17T16:41:49.535Z,3.93
2023-01-17T16:44:19.960Z,3.89
2023-01-17T16:46:50.465Z,3.82
2023-01-17T16:49:20.930Z,3.79
2023-01-17T16:51:52.330Z,3.78
2023-01-17T16:54:26.586Z,3.74
2023-01-17T16:56:57.013Z,3.67
2023-01-17T16:59:36.743Z,3.58
2023-01-17T17:02:15.254Z,3.55
2023-01-17T17:04:45.871Z,3.55
2023-01-17T17:07:16.417Z,3.52
2023-01-17T17:09:49.615Z,3.46
2023-01-17T17:12:19.919Z,3.43
2023-01-17T17:14:50.177Z,3.29
2023-01-17T17:17:20.467Z,3.07
2023-01-17T17:19:51.017Z,3.04
2023-01-17T17:22:21.433Z,2.99
2023-01-17T17:24:54.343Z,2.89
2023-01-17T17:27:26.614Z,2.87
2023-01-17T17:29:57.051Z,2.87
2023-01-17T17:32:28.205Z,2.86
2023-01-17T17:34:58.604Z,2.83
2023-01-17T17:37:30.043Z,2.71
2023-01-17T17:40:04.060Z,2.72
2023-01-17T17:42:34.451Z,2.71
2023-01-17T17:45:04.946Z,2.74
2023-01-17T17:47:35.343Z,2.72
2023-01-17T17:50:05.701Z,2.69
2023-01-17T17:52:35.980Z,2.68
2023-01-17T17:55:11.110Z,2.69
2023-01-17T17:57:41.356Z,2.67
2023-01-17T18:00:14.114Z,2.64
2023-01-17T18:02:44.408Z,2.68
2023-01-17T18:05:14.617Z,2.67
2023-01-17T18:07:47.202Z,2.67
2023-01-17T18:10:20.435Z,2.64
2023-01-17T18:12:50.703Z,2.61
2023-01-17T18:15:21.641Z,2.59
2023-01-17T18:17:52.674Z,2.59
2023-01-17T18:20:23.393Z,2.57
2023-01-17T18:22:53.739Z,2.56
2023-01-17T18:25:26.661Z,2.56
2023-01-17T18:27:56.997Z,2.53
2023-01-17T18:30:27.274Z,2.53
2023-01-17T18:32:57.547Z,2.55
2023-01-17T18:35:27.894Z,2.55
2023-01-17T18:37:58.183Z,2.54
2023-01-17T18:40:31.031Z,2.51
2023-01-17T18:43:01.430Z,2.49
2023-01-17T18:45:31.691Z,2.46
2023-01-17T18:48:02.693Z,2.42
2023-01-17T18:50:32.926Z,2.39
2023-01-17T18:53:03.353Z,2.38
2023-01-17T18:55:36.519Z,2.38
2023-01-17T18:58:06.802Z,2.41
2023-01-17T19:00:37.177Z,2.40
2023-01-17T19:03:07.773Z,2.41
2023-01-17T19:05:39.180Z,2.45
2023-01-17T19:08:09.717Z,2.51
2023-01-17T19:10:42.703Z,2.52
2023-01-17T19:13:13.249Z,2.49
2023-01-17T19:15:43.953Z,2.53
2023-01-17T19:18:14.307Z,2.54
2023-01-17T19:20:44.643Z,2.49
2023-01-17T19:23:15.048Z,2.48
2023-01-17T19:25:47.997Z,2.56
2023-01-17T19:28:18.280Z,2.59
2023-01-17T19:30:48.528Z,2.59
2023-01-17T19:33:18.925Z,2.60
2023-01-17T19:35:49.169Z,2.61
2023-01-17T19:38:19.443Z,2.61
2023-01-17T19:40:52.469Z,2.61
2023-01-17T19:43:22.989Z,2.64
2023-01-17T19:46:01.407Z,2.54
2023-01-17T19:48:32.410Z,2.51
2023-01-17T19:51:07.845Z,2.50
2023-01-17T19:53:39.887Z,2.52
2023-01-17T19:56:15.819Z,2.51
2023-01-17T19:58:48.343Z,2.45
2023-01-17T20:01:21.671Z,2.39
2023-01-17T20:03:53.658Z,2.37
2023-01-17T20:06:29.313Z,2.37
2023-01-17T20:09:00.128Z,2.36
2023-01-17T20:11:35.774Z,2.30
2023-01-17T20:14:08.008Z,2.25
2023-01-17T20:16:39.557Z,2.21
2023-01-17T20:19:09.958Z,2.12
2023-01-17T20:21:40.353Z,2.14
2023-01-17T20:24:13.775Z,2.15
2023-01-17T20:26:46.746Z,2.14
2023-01-17T20:29:19.652Z,2.22
2023-01-17T20:31:54.591Z,2.26
2023-01-17T20:34:26.378Z,2.29
2023-01-17T20:36:59.439Z,2.26
2023-01-17T20:39:29.973Z,2.23
2023-01-17T20:42:02.939Z,2.21
2023-01-17T20:44:34.487Z,2.19
2023-01-17T20:47:04.946Z,2.17
2023-01-17T20:49:35.577Z,2.17
2023-01-17T20:52:06.351Z,2.15
2023-01-17T20:54:36.773Z,2.18
2023-01-17T20:57:09.691Z,2.19
2023-01-17T20:59:39.987Z,2.18
2023-01-17T21:02:10.871Z,2.16
2023-01-17T21:04:41.489Z,2.18
2023-01-17T21:07:11.930Z,2.19
2023-01-17T21:09:42.935Z,2.19
2023-01-17T21:12:16.156Z,2.16
2023-01-17T21:14:46.518Z,2.12
2023-01-17T21:17:17.069Z,2.11
2023-01-17T21:19:50.086Z,2.10
2023-01-17T21:22:20.429Z,2.10
2023-01-17T21:24:50.837Z,2.10
2023-01-17T21:27:23.815Z,2.10
2023-01-17T21:29:56.033Z,2.10
2023-01-17T21:32:29.151Z,2.11
2023-01-17T21:34:59.534Z,2.12
2023-01-17T21:37:29.865Z,2.12
2023-01-17T21:40:05.238Z,2.11
2023-01-17T21:42:38.366Z,2.13
2023-01-17T21:45:10.167Z,2.19
2023-01-17T21:47:42.295Z,2.21
2023-01-17T21:50:25.072Z,2.21
2023-01-17T21:53:05.776Z,2.23
2023-01-17T21:55:48.564Z,2.28
2023-01-17T21:58:33.993Z,2.27
2023-01-17T22:01:16.081Z,2.25
2023-01-17T22:03:47.747Z,2.24
2023-01-17T22:06:18.068Z,2.26
2023-01-17T22:08:48.567Z,2.17
2023-01-17T22:11:21.535Z,2.15
2023-01-17T22:13:56.334Z,2.17
2023-01-17T22:16:28.659Z,2.21
2023-01-17T22:18:58.727Z,2.18
2023-01-17T22:21:31.453Z,1.99
2023-01-17T22:24:02.987Z,1.96
2023-01-17T22:26:35.153Z,2.06
2023-01-17T22:29:09.754Z,1.86
2023-01-17T22:31:40.577Z,1.71
2023-01-17T22:34:10.892Z,1.75
2023-01-17T22:36:41.199Z,1.83
2023-01-17T22:39:12.943Z,1.84
2023-01-17T22:41:43.262Z,1.85
2023-01-17T22:44:16.206Z,1.81
2023-01-17T22:46:46.520Z,1.85
2023-01-17T22:49:17.050Z,1.88
2023-01-17T22:51:47.457Z,1.89
2023-01-17T22:54:19.485Z,1.96
2023-01-17T22:56:50.029Z,1.95
2023-01-17T22:59:22.898Z,1.96
2023-01-17T23:01:53.212Z,1.96
2023-01-17T23:04:23.501Z,1.91
2023-01-17T23:06:53.807Z,1.93
2023-01-17T23:09:24.907Z,1.97
2023-01-17T23:11:56.804Z,2.02
2023-01-17T23:14:53.291Z,2.02
2023-01-17T23:17:38.595Z,1.97
2023-01-17T23:20:11.767Z,1.95
2023-01-17T23:22:42.091Z,2.00
2023-01-17T23:25:15.140Z,2.04
2023-01-17T23:28:00.107Z,2.02
2023-01-17T23:30:36.362Z,2.05
2023-01-17T23:33:09.922Z,2.08
2023-01-17T23:35:42.893Z,2.11
2023-01-17T23:38:28.394Z,2.13
2023-01-17T23:41:16.501Z,2.12
2023-01-17T23:43:46.749Z,2.11
2023-01-17T23:46:19.715Z,2.12
2023-01-17T23:48:50.475Z,2.12
2023-01-17T23:51:21.099Z,2.13
2023-01-17T23:53:57.410Z,2.12
2023-01-17T23:56:27.989Z,1.98
2023-01-17T23:58:58.286Z,1.89
